Orbital elements of FENGYUN 1C DEB
| Launched | 9 May 1999 |
| Flight ended | – |
| Launch site | Taiyuan Space Center, PRC |
| Owner | People's Republic of China |
| NORAD ID | 33605 |
| Date fetched |
Epoch osculation |
Inc. [°] |
Ecc. | RA asc node [hr] |
Arg Peri. [°] |
Mean anom [°] |
Mean motion [rev/day] |
Abs. mag |
| Date fetched |
Epoch osculation |
Inc. [°] |
Ecc. | RA asc node [hr] |
Arg Peri. [°] |
Mean anom [°] |
Mean motion [rev/day] |
Abs. mag |
| 2026 May 05 17:57 | 2026 May 01 06:47:37 | 98.7035 | 0.00572 | 8.0193 | 41.8951 | 335.0895 | 14.08054 | – |
| 2026 May 04 17:57 | 2026 Apr 28 22:34:37 | 98.7045 | 0.00573 | 7.8687 | 48.3826 | 335.0895 | 14.08054 | – |
| 2026 May 03 17:57 | 2026 Apr 28 22:34:37 | 98.7045 | 0.00573 | 7.8687 | 48.3826 | 335.0895 | 14.08054 | – |
| 2026 May 02 17:57 | 2026 Apr 28 22:34:37 | 98.7045 | 0.00573 | 7.8687 | 48.3826 | 335.0895 | 14.08054 | – |
| 2026 May 01 17:56 | 2026 Apr 28 22:34:37 | 98.7045 | 0.00573 | 7.8687 | 48.3826 | 335.0895 | 14.08054 | – |
| 2026 Apr 30 17:56 | 2026 Apr 28 22:34:37 | 98.7045 | 0.00573 | 7.8687 | 48.3826 | 335.0895 | 14.08054 | – |
| 2026 Apr 29 17:57 | 2026 Apr 24 05:57:44 | 98.7048 | 0.00574 | 7.5669 | 61.3156 | 335.0895 | 14.08054 | – |
| 2026 Apr 28 17:56 | 2026 Apr 24 05:57:44 | 98.7048 | 0.00574 | 7.5669 | 61.3156 | 335.0895 | 14.08054 | – |
| 2026 Apr 27 17:58 | 2026 Apr 24 05:57:44 | 98.7048 | 0.00574 | 7.5669 | 61.3156 | 335.0895 | 14.08054 | – |
| 2026 Apr 26 17:58 | 2026 Apr 24 05:57:44 | 98.7048 | 0.00574 | 7.5669 | 61.3156 | 335.0895 | 14.08054 | – |
| 2026 Apr 25 17:58 | 2026 Apr 24 05:57:44 | 98.7048 | 0.00574 | 7.5669 | 61.3156 | 335.0895 | 14.08054 | – |
| 2026 Apr 24 17:59 | 2026 Apr 24 05:57:44 | 98.7048 | 0.00574 | 7.5669 | 61.3156 | 335.0895 | 14.08054 | – |
| 2026 Apr 23 17:57 | 2026 Apr 16 17:55:38 | 98.7048 | 0.00575 | 7.0845 | 81.9898 | 335.0895 | 14.08054 | – |
| 2026 Apr 22 17:57 | 2026 Apr 16 17:55:38 | 98.7048 | 0.00575 | 7.0845 | 81.9898 | 335.0895 | 14.08054 | – |
| 2026 Apr 21 17:57 | 2026 Apr 16 17:55:38 | 98.7048 | 0.00575 | 7.0845 | 81.9898 | 335.0895 | 14.08054 | – |
| 2026 Apr 20 17:57 | 2026 Apr 16 17:55:38 | 98.7048 | 0.00575 | 7.0845 | 81.9898 | 335.0895 | 14.08054 | – |
| 2026 Apr 19 17:58 | 2026 Apr 16 17:55:38 | 98.7048 | 0.00575 | 7.0845 | 81.9898 | 335.0895 | 14.08054 | – |
| 2026 Apr 18 17:56 | 2026 Apr 13 05:36:06 | 98.7045 | 0.00576 | 6.8585 | 91.7136 | 335.0895 | 14.08054 | – |
| 2026 Apr 16 17:57 | 2026 Apr 13 05:36:06 | 98.7045 | 0.00576 | 6.8585 | 91.7136 | 335.0895 | 14.08054 | – |
| 2026 Apr 14 17:57 | 2026 Apr 13 05:36:06 | 98.7045 | 0.00576 | 6.8585 | 91.7136 | 335.0895 | 14.08054 | – |
| 2026 Apr 13 17:57 | 2026 Apr 13 05:36:06 | 98.7045 | 0.00576 | 6.8585 | 91.7136 | 335.0895 | 14.08054 | – |
| 2026 Apr 12 17:57 | 2026 Apr 08 06:14:05 | 98.7057 | 0.00575 | 6.5387 | 105.3875 | 335.0895 | 14.08054 | – |
| 2026 Apr 11 17:57 | 2026 Apr 08 06:14:05 | 98.7057 | 0.00575 | 6.5387 | 105.3875 | 335.0895 | 14.08054 | – |
| 2026 Apr 10 17:58 | 2026 Apr 08 06:14:05 | 98.7057 | 0.00575 | 6.5387 | 105.3875 | 335.0895 | 14.08054 | – |
| 2026 Apr 09 18:01 | 2026 Apr 08 06:14:05 | 98.7057 | 0.00575 | 6.5387 | 105.3875 | 335.0895 | 14.08054 | – |
| 2026 Apr 08 17:57 | 2026 Apr 08 06:14:05 | 98.7057 | 0.00575 | 6.5387 | 105.3875 | 335.0895 | 14.08054 | – |